sensor_id;sensor_type;location;lat;lon;timestamp;noise_LAeq;noise_LA_min;noise_LA_max;noise_LA01;noise_LA95
72686;Laerm;61365;52.162;4.500;2023-07-31T00:00:40;41.39;34.99;54.86;;
72686;Laerm;61365;52.162;4.500;2023-07-31T00:03:06;41.52;35.49;56.05;;
72686;Laerm;61365;52.162;4.500;2023-07-31T00:05:32;41.17;34.85;55.76;;
72686;Laerm;61365;52.162;4.500;2023-07-31T00:07:58;41.15;33.11;54.24;;
72686;Laerm;61365;52.162;4.500;2023-07-31T00:10:24;41.11;34.27;55.31;;
72686;Laerm;61365;52.162;4.500;2023-07-31T00:12:50;41.16;34.40;55.40;;
72686;Laerm;61365;52.162;4.500;2023-07-31T00:15:16;41.09;33.35;54.85;;
72686;Laerm;61365;52.162;4.500;2023-07-31T00:17:42;41.18;33.10;53.86;;
72686;Laerm;61365;52.162;4.500;2023-07-31T00:20:09;41.36;33.49;55.86;;
72686;Laerm;61365;52.162;4.500;2023-07-31T00:22:35;41.29;33.16;55.87;;
72686;Laerm;61365;52.162;4.500;2023-07-31T00:25:02;41.34;34.32;54.96;;
72686;Laerm;61365;52.162;4.500;2023-07-31T00:27:28;41.18;34.94;54.16;;
72686;Laerm;61365;52.162;4.500;2023-07-31T00:29:54;41.17;34.17;54.64;;
72686;Laerm;61365;52.162;4.500;2023-07-31T00:32:20;41.14;34.41;54.14;;
72686;Laerm;61365;52.162;4.500;2023-07-31T00:34:46;41.34;34.48;54.01;;
72686;Laerm;61365;52.162;4.500;2023-07-31T00:37:12;41.17;34.68;55.22;;
72686;Laerm;61365;52.162;4.500;2023-07-31T00:39:38;41.26;35.02;54.45;;
72686;Laerm;61365;52.162;4.500;2023-07-31T00:42:05;41.10;33.61;53.28;;
72686;Laerm;61365;52.162;4.500;2023-07-31T00:44:31;41.26;34.14;55.95;;
72686;Laerm;61365;52.162;4.500;2023-07-31T00:46:57;41.19;34.94;53.50;;
72686;Laerm;61365;52.162;4.500;2023-07-31T00:49:25;41.24;34.63;54.89;;
72686;Laerm;61365;52.162;4.500;2023-07-31T00:51:52;41.30;35.21;53.85;;
72686;Laerm;61365;52.162;4.500;2023-07-31T00:54:19;41.18;33.82;55.41;;
72686;Laerm;61365;52.162;4.500;2023-07-31T00:56:46;41.15;34.69;54.26;;
72686;Laerm;61365;52.162;4.500;2023-07-31T00:59:14;41.31;34.54;56.19;;
72686;Laerm;61365;52.162;4.500;2023-07-31T01:01:40;41.24;33.47;53.75;;
72686;Laerm;61365;52.162;4.500;2023-07-31T01:04:07;41.34;34.25;54.69;;
72686;Laerm;61365;52.162;4.500;2023-07-31T01:06:41;41.26;33.39;55.65;;
72686;Laerm;61365;52.162;4.500;2023-07-31T01:12:15;41.30;34.82;55.45;;
72686;Laerm;61365;52.162;4.500;2023-07-31T01:15:02;41.18;34.01;54.38;;
72686;Laerm;61365;52.162;4.500;2023-07-31T01:17:28;41.20;33.86;55.43;;
72686;Laerm;61365;52.162;4.500;2023-07-31T01:19:59;41.27;34.36;54.36;;
72686;Laerm;61365;52.162;4.500;2023-07-31T01:25:18;41.14;34.43;54.74;;
72686;Laerm;61365;52.162;4.500;2023-07-31T01:28:05;41.13;34.65;54.78;;
72686;Laerm;61365;52.162;4.500;2023-07-31T01:30:37;41.19;34.87;54.59;;
72686;Laerm;61365;52.162;4.500;2023-07-31T01:33:07;41.18;33.63;54.70;;
72686;Laerm;61365;52.162;4.500;2023-07-31T01:35:34;41.12;35.02;54.52;;
72686;Laerm;61365;52.162;4.500;2023-07-31T01:38:01;41.17;33.52;53.90;;
72686;Laerm;61365;52.162;4.500;2023-07-31T01:40:27;41.16;34.28;54.04;;
72686;Laerm;61365;52.162;4.500;2023-07-31T01:42:53;41.21;34.09;53.61;;
72686;Laerm;61365;52.162;4.500;2023-07-31T01:45:19;41.25;35.05;53.73;;
72686;Laerm;61365;52.162;4.500;2023-07-31T01:47:45;41.18;34.41;53.98;;
72686;Laerm;61365;52.162;4.500;2023-07-31T01:50:12;41.22;34.22;54.32;;
72686;Laerm;61365;52.162;4.500;2023-07-31T01:52:38;41.25;33.08;53.42;;
72686;Laerm;61365;52.162;4.500;2023-07-31T01:55:04;41.21;34.25;55.12;;
72686;Laerm;61365;52.162;4.500;2023-07-31T01:57:30;41.35;33.72;55.77;;
72686;Laerm;61365;52.162;4.500;2023-07-31T01:59:56;41.45;34.46;57.12;;
72686;Laerm;61365;52.162;4.500;2023-07-31T02:02:22;41.20;34.27;54.40;;
72686;Laerm;61365;52.162;4.500;2023-07-31T02:04:49;41.30;34.91;56.44;;
72686;Laerm;61365;52.162;4.500;2023-07-31T02:07:15;41.25;33.78;55.02;;
72686;Laerm;61365;52.162;4.500;2023-07-31T02:09:41;41.35;33.91;55.27;;
72686;Laerm;61365;52.162;4.500;2023-07-31T02:12:07;41.31;33.53;53.53;;
72686;Laerm;61365;52.162;4.500;2023-07-31T02:14:36;41.45;33.68;53.91;;
72686;Laerm;61365;52.162;4.500;2023-07-31T02:17:03;41.25;33.44;53.33;;
72686;Laerm;61365;52.162;4.500;2023-07-31T02:19:29;41.32;34.65;54.47;;
72686;Laerm;61365;52.162;4.500;2023-07-31T02:21:55;41.30;34.32;54.35;;
72686;Laerm;61365;52.162;4.500;2023-07-31T02:24:21;41.31;33.99;55.01;;
72686;Laerm;61365;52.162;4.500;2023-07-31T02:26:47;41.25;33.11;53.85;;
72686;Laerm;61365;52.162;4.500;2023-07-31T02:29:13;41.30;34.09;54.81;;
72686;Laerm;61365;52.162;4.500;2023-07-31T02:31:39;41.20;34.15;53.65;;
72686;Laerm;61365;52.162;4.500;2023-07-31T02:34:05;41.34;33.31;54.21;;
72686;Laerm;61365;52.162;4.500;2023-07-31T02:36:31;41.30;32.78;53.35;;
72686;Laerm;61365;52.162;4.500;2023-07-31T02:38:57;41.29;33.98;52.47;;
72686;Laerm;61365;52.162;4.500;2023-07-31T02:41:24;41.32;34.04;53.07;;
72686;Laerm;61365;52.162;4.500;2023-07-31T02:43:50;41.37;33.55;55.60;;
72686;Laerm;61365;52.162;4.500;2023-07-31T02:46:19;41.33;34.19;52.82;;
72686;Laerm;61365;52.162;4.500;2023-07-31T02:48:45;41.27;34.28;53.44;;
72686;Laerm;61365;52.162;4.500;2023-07-31T02:51:11;41.44;34.23;53.92;;
72686;Laerm;61365;52.162;4.500;2023-07-31T02:53:37;41.38;33.14;53.54;;
72686;Laerm;61365;52.162;4.500;2023-07-31T02:56:03;41.34;32.97;55.45;;
72686;Laerm;61365;52.162;4.500;2023-07-31T02:58:29;41.26;34.18;54.02;;
72686;Laerm;61365;52.162;4.500;2023-07-31T03:00:55;41.51;33.25;53.65;;
72686;Laerm;61365;52.162;4.500;2023-07-31T03:03:23;41.49;33.39;54.90;;
72686;Laerm;61365;52.162;4.500;2023-07-31T03:05:49;41.46;33.89;53.17;;
72686;Laerm;61365;52.162;4.500;2023-07-31T03:08:15;41.40;33.84;53.68;;
72686;Laerm;61365;52.162;4.500;2023-07-31T03:10:41;41.42;33.50;52.16;;
72686;Laerm;61365;52.162;4.500;2023-07-31T03:13:08;41.44;33.14;53.98;;
72686;Laerm;61365;52.162;4.500;2023-07-31T03:15:34;41.45;34.20;53.37;;
72686;Laerm;61365;52.162;4.500;2023-07-31T03:18:00;41.50;33.36;52.96;;
72686;Laerm;61365;52.162;4.500;2023-07-31T03:20:26;41.40;32.22;53.64;;
72686;Laerm;61365;52.162;4.500;2023-07-31T03:22:52;41.56;32.39;53.34;;
72686;Laerm;61365;52.162;4.500;2023-07-31T03:25:18;41.51;33.24;55.07;;
72686;Laerm;61365;52.162;4.500;2023-07-31T03:27:44;41.44;33.80;53.96;;
72686;Laerm;61365;52.162;4.500;2023-07-31T03:30:10;41.56;32.93;54.16;;
72686;Laerm;61365;52.162;4.500;2023-07-31T03:32:36;41.47;34.01;55.92;;
72686;Laerm;61365;52.162;4.500;2023-07-31T03:35:03;41.41;34.39;52.37;;
72686;Laerm;61365;52.162;4.500;2023-07-31T03:37:29;41.47;33.84;53.77;;
72686;Laerm;61365;52.162;4.500;2023-07-31T03:39:55;41.53;32.42;54.19;;
72686;Laerm;61365;52.162;4.500;2023-07-31T03:42:21;41.58;34.00;54.01;;
72686;Laerm;61365;52.162;4.500;2023-07-31T03:44:47;41.50;34.01;54.09;;
72686;Laerm;61365;52.162;4.500;2023-07-31T03:47:13;41.41;33.93;53.29;;
72686;Laerm;61365;52.162;4.500;2023-07-31T03:49:39;41.35;33.85;54.77;;
72686;Laerm;61365;52.162;4.500;2023-07-31T03:52:06;41.45;34.37;53.96;;
72686;Laerm;61365;52.162;4.500;2023-07-31T03:54:32;41.47;34.09;54.72;;
72686;Laerm;61365;52.162;4.500;2023-07-31T03:56:58;41.29;34.36;55.15;;
72686;Laerm;61365;52.162;4.500;2023-07-31T03:59:24;41.23;35.00;55.11;;
72686;Laerm;61365;52.162;4.500;2023-07-31T04:01:50;41.17;34.97;52.56;;
72686;Laerm;61365;52.162;4.500;2023-07-31T04:04:16;41.17;34.39;54.75;;
72686;Laerm;61365;52.162;4.500;2023-07-31T04:06:42;41.24;34.75;53.83;;
72686;Laerm;61365;52.162;4.500;2023-07-31T04:09:08;41.23;34.90;55.80;;
72686;Laerm;61365;52.162;4.500;2023-07-31T04:11:34;41.17;32.61;55.16;;
72686;Laerm;61365;52.162;4.500;2023-07-31T04:14:01;41.29;34.72;54.77;;
72686;Laerm;61365;52.162;4.500;2023-07-31T04:16:27;41.36;34.38;54.78;;
72686;Laerm;61365;52.162;4.500;2023-07-31T04:18:53;41.24;34.77;54.35;;
72686;Laerm;61365;52.162;4.500;2023-07-31T04:21:19;41.18;33.04;54.58;;
72686;Laerm;61365;52.162;4.500;2023-07-31T04:23:45;41.19;34.08;54.38;;
72686;Laerm;61365;52.162;4.500;2023-07-31T04:26:11;41.12;34.67;53.57;;
72686;Laerm;61365;52.162;4.500;2023-07-31T04:28:37;41.25;34.12;54.43;;
72686;Laerm;61365;52.162;4.500;2023-07-31T04:31:03;41.14;34.92;53.19;;
72686;Laerm;61365;52.162;4.500;2023-07-31T04:33:29;41.20;33.21;56.20;;
72686;Laerm;61365;52.162;4.500;2023-07-31T04:35:55;41.22;33.69;55.67;;
72686;Laerm;61365;52.162;4.500;2023-07-31T04:38:22;41.11;33.21;52.69;;
72686;Laerm;61365;52.162;4.500;2023-07-31T04:40:48;41.15;33.68;54.27;;
72686;Laerm;61365;52.162;4.500;2023-07-31T04:43:14;41.30;33.65;56.06;;
72686;Laerm;61365;52.162;4.500;2023-07-31T04:45:45;41.23;34.98;54.05;;
72686;Laerm;61365;52.162;4.500;2023-07-31T04:48:12;41.09;34.13;53.21;;
72686;Laerm;61365;52.162;4.500;2023-07-31T04:50:38;41.23;34.34;55.03;;
72686;Laerm;61365;52.162;4.500;2023-07-31T04:53:04;41.14;35.65;54.97;;
72686;Laerm;61365;52.162;4.500;2023-07-31T04:55:30;41.21;35.34;55.90;;
72686;Laerm;61365;52.162;4.500;2023-07-31T04:57:58;41.24;34.09;53.91;;
72686;Laerm;61365;52.162;4.500;2023-07-31T05:00:25;41.13;33.58;55.52;;
72686;Laerm;61365;52.162;4.500;2023-07-31T05:02:51;41.26;34.18;54.35;;
72686;Laerm;61365;52.162;4.500;2023-07-31T05:05:17;41.18;35.02;54.39;;
72686;Laerm;61365;52.162;4.500;2023-07-31T05:07:43;41.33;34.52;56.42;;
72686;Laerm;61365;52.162;4.500;2023-07-31T05:10:09;41.15;34.79;54.65;;
72686;Laerm;61365;52.162;4.500;2023-07-31T05:12:35;41.20;35.04;55.32;;
72686;Laerm;61365;52.162;4.500;2023-07-31T05:15:01;41.22;35.16;53.71;;
72686;Laerm;61365;52.162;4.500;2023-07-31T05:17:27;41.30;34.71;55.24;;
72686;Laerm;61365;52.162;4.500;2023-07-31T05:19:54;41.26;35.09;53.60;;
72686;Laerm;61365;52.162;4.500;2023-07-31T05:22:20;41.23;33.58;55.48;;
72686;Laerm;61365;52.162;4.500;2023-07-31T05:24:46;41.15;34.42;55.79;;
72686;Laerm;61365;52.162;4.500;2023-07-31T05:27:12;41.12;33.59;54.51;;
72686;Laerm;61365;52.162;4.500;2023-07-31T05:29:40;41.13;34.42;54.50;;
72686;Laerm;61365;52.162;4.500;2023-07-31T05:32:07;41.24;35.31;53.79;;
72686;Laerm;61365;52.162;4.500;2023-07-31T05:34:33;41.29;34.32;54.65;;
72686;Laerm;61365;52.162;4.500;2023-07-31T05:36:59;41.36;33.45;54.96;;
72686;Laerm;61365;52.162;4.500;2023-07-31T05:39:25;41.39;33.87;54.99;;
72686;Laerm;61365;52.162;4.500;2023-07-31T05:41:51;41.61;33.25;54.94;;
72686;Laerm;61365;52.162;4.500;2023-07-31T05:44:17;41.47;34.12;54.99;;
72686;Laerm;61365;52.162;4.500;2023-07-31T05:46:43;41.50;34.03;53.72;;
72686;Laerm;61365;52.162;4.500;2023-07-31T05:49:09;41.62;34.62;54.74;;
72686;Laerm;61365;52.162;4.500;2023-07-31T05:51:35;41.54;32.91;54.59;;
72686;Laerm;61365;52.162;4.500;2023-07-31T05:54:02;41.73;33.46;54.50;;
72686;Laerm;61365;52.162;4.500;2023-07-31T05:56:28;41.53;33.43;55.09;;
72686;Laerm;61365;52.162;4.500;2023-07-31T05:58:54;41.44;35.25;55.14;;
72686;Laerm;61365;52.162;4.500;2023-07-31T06:01:20;41.39;33.76;55.35;;
72686;Laerm;61365;52.162;4.500;2023-07-31T06:03:47;41.37;34.55;54.18;;
72686;Laerm;61365;52.162;4.500;2023-07-31T06:06:13;41.38;33.91;55.56;;
72686;Laerm;61365;52.162;4.500;2023-07-31T06:08:39;41.41;34.17;54.80;;
72686;Laerm;61365;52.162;4.500;2023-07-31T06:11:06;41.38;34.65;55.13;;
72686;Laerm;61365;52.162;4.500;2023-07-31T06:13:35;41.34;34.40;54.78;;
72686;Laerm;61365;52.162;4.500;2023-07-31T06:16:01;41.62;33.91;56.57;;
72686;Laerm;61365;52.162;4.500;2023-07-31T06:18:32;41.55;34.87;54.40;;
72686;Laerm;61365;52.162;4.500;2023-07-31T06:20:59;41.67;34.05;53.24;;
72686;Laerm;61365;52.162;4.500;2023-07-31T06:23:25;41.39;34.30;56.20;;
72686;Laerm;61365;52.162;4.500;2023-07-31T06:25:51;41.40;33.87;54.66;;
72686;Laerm;61365;52.162;4.500;2023-07-31T06:28:17;41.35;35.19;56.34;;
72686;Laerm;61365;52.162;4.500;2023-07-31T06:30:44;41.34;34.47;54.29;;
72686;Laerm;61365;52.162;4.500;2023-07-31T06:33:10;41.41;33.88;55.56;;
72686;Laerm;61365;52.162;4.500;2023-07-31T06:35:36;41.43;34.29;54.47;;
72686;Laerm;61365;52.162;4.500;2023-07-31T06:38:02;41.46;32.85;55.88;;
72686;Laerm;61365;52.162;4.500;2023-07-31T06:40:29;41.42;34.40;54.75;;
72686;Laerm;61365;52.162;4.500;2023-07-31T06:42:55;41.32;34.24;54.59;;
72686;Laerm;61365;52.162;4.500;2023-07-31T06:45:21;41.24;35.34;55.08;;
72686;Laerm;61365;52.162;4.500;2023-07-31T06:47:47;41.20;34.36;55.67;;
72686;Laerm;61365;52.162;4.500;2023-07-31T06:50:13;41.35;33.24;56.86;;
72686;Laerm;61365;52.162;4.500;2023-07-31T06:52:39;41.30;34.22;54.36;;
72686;Laerm;61365;52.162;4.500;2023-07-31T06:55:18;41.32;34.62;55.25;;
72686;Laerm;61365;52.162;4.500;2023-07-31T06:57:48;41.26;34.71;54.86;;
72686;Laerm;61365;52.162;4.500;2023-07-31T07:00:16;41.21;34.54;55.15;;
72686;Laerm;61365;52.162;4.500;2023-07-31T07:02:42;41.33;34.88;54.62;;
72686;Laerm;61365;52.162;4.500;2023-07-31T07:05:09;41.18;34.36;54.17;;
72686;Laerm;61365;52.162;4.500;2023-07-31T07:07:35;41.24;33.86;55.61;;
72686;Laerm;61365;52.162;4.500;2023-07-31T07:10:01;41.33;34.30;53.31;;
72686;Laerm;61365;52.162;4.500;2023-07-31T07:12:31;41.14;34.45;55.13;;
72686;Laerm;61365;52.162;4.500;2023-07-31T07:14:57;41.18;33.51;54.34;;
72686;Laerm;61365;52.162;4.500;2023-07-31T07:17:24;41.17;34.60;55.25;;
72686;Laerm;61365;52.162;4.500;2023-07-31T07:19:50;41.12;33.74;55.19;;
72686;Laerm;61365;52.162;4.500;2023-07-31T07:22:17;41.27;34.38;54.72;;
72686;Laerm;61365;52.162;4.500;2023-07-31T07:24:43;41.17;34.35;54.93;;
72686;Laerm;61365;52.162;4.500;2023-07-31T07:27:10;41.20;33.78;53.22;;
72686;Laerm;61365;52.162;4.500;2023-07-31T07:29:37;41.31;34.11;55.26;;
72686;Laerm;61365;52.162;4.500;2023-07-31T07:32:04;41.29;33.99;54.55;;
72686;Laerm;61365;52.162;4.500;2023-07-31T07:34:31;41.36;33.95;56.05;;
72686;Laerm;61365;52.162;4.500;2023-07-31T07:36:57;41.27;34.09;54.75;;
72686;Laerm;61365;52.162;4.500;2023-07-31T07:39:23;41.50;33.18;54.89;;
72686;Laerm;61365;52.162;4.500;2023-07-31T07:41:49;41.60;33.44;56.17;;
72686;Laerm;61365;52.162;4.500;2023-07-31T07:44:15;41.62;33.24;54.99;;
72686;Laerm;61365;52.162;4.500;2023-07-31T07:46:41;41.56;34.09;52.46;;
72686;Laerm;61365;52.162;4.500;2023-07-31T07:49:07;41.47;34.70;52.93;;
72686;Laerm;61365;52.162;4.500;2023-07-31T07:51:34;41.25;35.22;53.25;;
72686;Laerm;61365;52.162;4.500;2023-07-31T07:54:00;41.37;33.89;55.60;;
72686;Laerm;61365;52.162;4.500;2023-07-31T07:56:27;41.21;33.28;54.11;;
72686;Laerm;61365;52.162;4.500;2023-07-31T07:58:54;41.24;34.22;54.44;;
72686;Laerm;61365;52.162;4.500;2023-07-31T08:01:20;41.00;34.46;55.01;;
72686;Laerm;61365;52.162;4.500;2023-07-31T08:03:47;41.08;33.79;54.28;;
72686;Laerm;61365;52.162;4.500;2023-07-31T08:06:14;41.01;33.38;54.54;;
72686;Laerm;61365;52.162;4.500;2023-07-31T08:08:40;41.06;32.54;53.72;;
72686;Laerm;61365;52.162;4.500;2023-07-31T08:11:07;41.16;32.14;53.69;;
72686;Laerm;61365;52.162;4.500;2023-07-31T08:13:33;40.97;33.75;53.53;;
72686;Laerm;61365;52.162;4.500;2023-07-31T08:15:59;40.99;34.07;55.60;;
72686;Laerm;61365;52.162;4.500;2023-07-31T08:18:25;40.98;35.08;54.47;;
72686;Laerm;61365;52.162;4.500;2023-07-31T08:20:52;40.85;35.41;54.30;;
72686;Laerm;61365;52.162;4.500;2023-07-31T08:23:18;40.88;34.45;55.04;;
72686;Laerm;61365;52.162;4.500;2023-07-31T08:25:45;41.02;33.76;54.15;;
72686;Laerm;61365;52.162;4.500;2023-07-31T08:28:11;40.97;33.75;53.97;;
72686;Laerm;61365;52.162;4.500;2023-07-31T08:30:37;41.01;33.85;55.05;;
72686;Laerm;61365;52.162;4.500;2023-07-31T08:33:03;40.93;34.25;54.09;;
72686;Laerm;61365;52.162;4.500;2023-07-31T08:35:29;41.07;35.00;53.38;;
72686;Laerm;61365;52.162;4.500;2023-07-31T08:37:55;41.19;35.23;54.74;;
72686;Laerm;61365;52.162;4.500;2023-07-31T08:40:21;40.94;35.24;53.16;;
72686;Laerm;61365;52.162;4.500;2023-07-31T08:42:51;41.02;34.06;54.06;;
72686;Laerm;61365;52.162;4.500;2023-07-31T08:45:19;41.22;32.81;54.62;;
72686;Laerm;61365;52.162;4.500;2023-07-31T08:47:50;41.62;32.64;53.99;;
72686;Laerm;61365;52.162;4.500;2023-07-31T08:50:19;41.73;31.95;54.75;;
72686;Laerm;61365;52.162;4.500;2023-07-31T08:52:46;41.84;32.78;54.77;;
72686;Laerm;61365;52.162;4.500;2023-07-31T08:55:13;41.85;32.50;54.07;;
72686;Laerm;61365;52.162;4.500;2023-07-31T08:57:40;41.83;32.11;53.68;;
72686;Laerm;61365;52.162;4.500;2023-07-31T09:00:09;42.23;31.72;54.06;;
72686;Laerm;61365;52.162;4.500;2023-07-31T09:02:46;42.04;31.95;53.61;;
72686;Laerm;61365;52.162;4.500;2023-07-31T09:05:14;41.80;32.70;55.25;;
72686;Laerm;61365;52.162;4.500;2023-07-31T09:07:43;41.68;32.22;52.74;;
72686;Laerm;61365;52.162;4.500;2023-07-31T09:10:12;41.72;32.38;53.47;;
72686;Laerm;61365;52.162;4.500;2023-07-31T09:12:39;41.87;32.97;53.46;;
72686;Laerm;61365;52.162;4.500;2023-07-31T09:15:06;42.05;31.82;54.62;;
72686;Laerm;61365;52.162;4.500;2023-07-31T09:17:36;42.23;31.98;53.18;;
72686;Laerm;61365;52.162;4.500;2023-07-31T09:20:19;42.20;32.46;54.00;;
72686;Laerm;61365;52.162;4.500;2023-07-31T09:22:48;42.03;32.33;53.23;;
72686;Laerm;61365;52.162;4.500;2023-07-31T09:25:21;42.00;32.46;53.86;;
72686;Laerm;61365;52.162;4.500;2023-07-31T09:27:54;42.12;32.79;55.18;;
72686;Laerm;61365;52.162;4.500;2023-07-31T09:30:21;41.89;32.89;53.58;;
72686;Laerm;61365;52.162;4.500;2023-07-31T09:32:48;42.00;32.36;53.02;;
72686;Laerm;61365;52.162;4.500;2023-07-31T09:35:27;41.97;32.43;55.05;;
72686;Laerm;61365;52.162;4.500;2023-07-31T09:37:58;42.01;32.33;53.74;;
72686;Laerm;61365;52.162;4.500;2023-07-31T09:40:36;42.00;33.00;53.79;;
72686;Laerm;61365;52.162;4.500;2023-07-31T09:43:07;42.12;32.40;53.71;;
72686;Laerm;61365;52.162;4.500;2023-07-31T09:45:39;42.15;33.03;53.88;;
72686;Laerm;61365;52.162;4.500;2023-07-31T09:50:39;42.01;32.64;55.08;;
72686;Laerm;61365;52.162;4.500;2023-07-31T09:53:06;41.96;32.47;55.28;;
72686;Laerm;61365;52.162;4.500;2023-07-31T09:55:34;42.16;32.28;54.69;;
72686;Laerm;61365;52.162;4.500;2023-07-31T09:58:07;42.04;33.22;54.82;;
72686;Laerm;61365;52.162;4.500;2023-07-31T10:00:35;41.82;32.01;52.83;;
72686;Laerm;61365;52.162;4.500;2023-07-31T10:03:06;42.27;32.51;52.74;;
72686;Laerm;61365;52.162;4.500;2023-07-31T10:05:38;41.83;32.00;52.23;;
72686;Laerm;61365;52.162;4.500;2023-07-31T10:08:07;41.78;32.51;51.95;;
72686;Laerm;61365;52.162;4.500;2023-07-31T10:10:36;42.31;32.25;52.32;;
72686;Laerm;61365;52.162;4.500;2023-07-31T10:13:07;41.81;33.20;54.13;;
72686;Laerm;61365;52.162;4.500;2023-07-31T10:15:36;41.92;32.08;53.10;;
72686;Laerm;61365;52.162;4.500;2023-07-31T10:18:02;41.91;32.31;53.95;;
72686;Laerm;61365;52.162;4.500;2023-07-31T10:20:31;41.84;32.25;55.03;;
72686;Laerm;61365;52.162;4.500;2023-07-31T10:22:58;41.82;32.62;51.28;;
72686;Laerm;61365;52.162;4.500;2023-07-31T10:25:26;41.79;32.38;53.39;;
72686;Laerm;61365;52.162;4.500;2023-07-31T10:27:53;41.75;32.73;52.59;;
72686;Laerm;61365;52.162;4.500;2023-07-31T10:30:22;41.74;31.99;52.98;;
72686;Laerm;61365;52.162;4.500;2023-07-31T10:32:51;41.67;32.54;51.94;;
72686;Laerm;61365;52.162;4.500;2023-07-31T10:35:18;41.78;31.78;54.22;;
72686;Laerm;61365;52.162;4.500;2023-07-31T10:37:45;41.83;32.61;52.67;;
72686;Laerm;61365;52.162;4.500;2023-07-31T10:40:16;41.84;32.43;51.90;;
72686;Laerm;61365;52.162;4.500;2023-07-31T10:42:53;41.69;32.30;53.32;;
72686;Laerm;61365;52.162;4.500;2023-07-31T10:45:38;41.65;31.97;51.33;;
72686;Laerm;61365;52.162;4.500;2023-07-31T10:48:17;41.81;32.52;52.07;;
72686;Laerm;61365;52.162;4.500;2023-07-31T10:50:55;41.78;32.52;51.22;;
72686;Laerm;61365;52.162;4.500;2023-07-31T10:53:26;41.69;31.68;51.98;;
72686;Laerm;61365;52.162;4.500;2023-07-31T10:55:52;41.70;31.88;53.57;;
72686;Laerm;61365;52.162;4.500;2023-07-31T10:58:20;41.84;32.26;53.72;;
72686;Laerm;61365;52.162;4.500;2023-07-31T11:00:49;41.59;32.49;52.33;;
72686;Laerm;61365;52.162;4.500;2023-07-31T11:03:17;42.02;32.56;51.67;;
72686;Laerm;61365;52.162;4.500;2023-07-31T11:05:47;41.54;32.38;51.59;;
72686;Laerm;61365;52.162;4.500;2023-07-31T11:08:28;41.35;32.70;52.67;;
72686;Laerm;61365;52.162;4.500;2023-07-31T11:13:30;41.71;31.56;53.00;;
72686;Laerm;61365;52.162;4.500;2023-07-31T11:15:56;41.75;32.58;53.01;;
72686;Laerm;61365;52.162;4.500;2023-07-31T11:18:23;41.72;31.75;53.39;;
72686;Laerm;61365;52.162;4.500;2023-07-31T11:20:49;41.76;32.46;53.71;;
72686;Laerm;61365;52.162;4.500;2023-07-31T11:23:17;41.60;31.34;51.72;;
72686;Laerm;61365;52.162;4.500;2023-07-31T11:25:43;41.48;32.84;50.22;;
72686;Laerm;61365;52.162;4.500;2023-07-31T11:28:12;41.02;31.57;52.09;;
72686;Laerm;61365;52.162;4.500;2023-07-31T11:30:39;41.29;32.09;53.03;;
72686;Laerm;61365;52.162;4.500;2023-07-31T11:33:10;41.27;32.02;51.44;;
72686;Laerm;61365;52.162;4.500;2023-07-31T11:35:48;41.71;31.45;51.64;;
72686;Laerm;61365;52.162;4.500;2023-07-31T11:40:49;41.39;32.16;52.18;;
72686;Laerm;61365;52.162;4.500;2023-07-31T11:43:15;41.47;32.02;53.82;;
72686;Laerm;61365;52.162;4.500;2023-07-31T11:45:52;41.25;31.94;52.82;;
72686;Laerm;61365;52.162;4.500;2023-07-31T11:48:29;41.37;32.09;51.70;;
72686;Laerm;61365;52.162;4.500;2023-07-31T11:51:00;41.68;32.93;53.33;;
72686;Laerm;61365;52.162;4.500;2023-07-31T11:53:40;41.57;31.85;51.87;;
72686;Laerm;61365;52.162;4.500;2023-07-31T11:56:09;41.60;32.15;51.76;;
72686;Laerm;61365;52.162;4.500;2023-07-31T11:58:37;41.36;31.92;52.61;;
72686;Laerm;61365;52.162;4.500;2023-07-31T12:01:05;41.66;31.79;52.39;;
72686;Laerm;61365;52.162;4.500;2023-07-31T12:03:32;41.64;32.29;51.40;;
72686;Laerm;61365;52.162;4.500;2023-07-31T12:05:59;41.35;31.77;49.96;;
72686;Laerm;61365;52.162;4.500;2023-07-31T12:08:26;41.54;32.89;54.03;;
72686;Laerm;61365;52.162;4.500;2023-07-31T12:10:53;41.60;32.40;54.43;;
72686;Laerm;61365;52.162;4.500;2023-07-31T12:13:24;41.84;32.05;51.57;;
72686;Laerm;61365;52.162;4.500;2023-07-31T12:15:58;41.65;32.51;54.55;;
72686;Laerm;61365;52.162;4.500;2023-07-31T12:18:27;41.56;32.36;54.64;;
72686;Laerm;61365;52.162;4.500;2023-07-31T12:20:56;41.43;32.55;52.10;;
72686;Laerm;61365;52.162;4.500;2023-07-31T12:23:26;41.31;32.70;52.56;;
72686;Laerm;61365;52.162;4.500;2023-07-31T12:28:30;41.82;32.70;53.91;;
72686;Laerm;61365;52.162;4.500;2023-07-31T12:31:00;41.65;32.35;53.48;;
72686;Laerm;61365;52.162;4.500;2023-07-31T12:33:34;41.55;31.69;53.73;;
72686;Laerm;61365;52.162;4.500;2023-07-31T12:36:02;41.61;32.18;53.11;;
72686;Laerm;61365;52.162;4.500;2023-07-31T12:38:30;41.56;32.22;51.43;;
72686;Laerm;61365;52.162;4.500;2023-07-31T12:40:56;41.26;32.06;53.31;;
72686;Laerm;61365;52.162;4.500;2023-07-31T12:43:22;41.13;32.43;51.78;;
72686;Laerm;61365;52.162;4.500;2023-07-31T12:45:48;41.42;32.50;50.61;;
72686;Laerm;61365;52.162;4.500;2023-07-31T12:48:15;41.41;32.59;51.75;;
72686;Laerm;61365;52.162;4.500;2023-07-31T12:50:41;41.22;31.97;54.70;;
72686;Laerm;61365;52.162;4.500;2023-07-31T12:53:07;41.21;32.59;51.84;;
72686;Laerm;61365;52.162;4.500;2023-07-31T12:55:33;41.28;31.70;50.38;;
72686;Laerm;61365;52.162;4.500;2023-07-31T12:58:00;41.18;31.59;52.59;;
72686;Laerm;61365;52.162;4.500;2023-07-31T13:00:27;41.23;32.05;51.03;;
72686;Laerm;61365;52.162;4.500;2023-07-31T13:02:53;41.12;31.64;50.18;;
72686;Laerm;61365;52.162;4.500;2023-07-31T13:05:22;41.25;31.47;51.67;;
72686;Laerm;61365;52.162;4.500;2023-07-31T13:07:49;41.22;32.20;53.59;;
72686;Laerm;61365;52.162;4.500;2023-07-31T13:10:15;41.17;31.47;53.32;;
72686;Laerm;61365;52.162;4.500;2023-07-31T13:12:41;41.18;31.47;52.51;;
72686;Laerm;61365;52.162;4.500;2023-07-31T13:15:08;41.41;31.94;52.29;;
72686;Laerm;61365;52.162;4.500;2023-07-31T13:17:35;41.55;31.50;52.37;;
72686;Laerm;61365;52.162;4.500;2023-07-31T13:20:01;41.75;31.90;52.01;;
72686;Laerm;61365;52.162;4.500;2023-07-31T13:22:27;41.56;31.75;52.73;;
72686;Laerm;61365;52.162;4.500;2023-07-31T13:24:54;41.66;32.23;51.98;;
72686;Laerm;61365;52.162;4.500;2023-07-31T13:27:20;41.70;32.86;52.48;;
72686;Laerm;61365;52.162;4.500;2023-07-31T13:29:48;41.77;32.18;53.63;;
72686;Laerm;61365;52.162;4.500;2023-07-31T13:32:16;41.76;32.15;53.62;;
72686;Laerm;61365;52.162;4.500;2023-07-31T13:34:43;41.50;32.06;54.49;;
72686;Laerm;61365;52.162;4.500;2023-07-31T13:37:09;41.67;32.49;54.26;;
72686;Laerm;61365;52.162;4.500;2023-07-31T13:39:35;41.88;32.60;54.19;;
72686;Laerm;61365;52.162;4.500;2023-07-31T13:42:03;41.92;32.08;54.24;;
72686;Laerm;61365;52.162;4.500;2023-07-31T13:44:29;41.81;32.40;54.27;;
72686;Laerm;61365;52.162;4.500;2023-07-31T13:46:55;41.74;32.41;52.12;;
72686;Laerm;61365;52.162;4.500;2023-07-31T13:49:22;41.94;32.07;53.72;;
72686;Laerm;61365;52.162;4.500;2023-07-31T13:51:48;41.78;32.41;54.79;;
72686;Laerm;61365;52.162;4.500;2023-07-31T13:54:14;41.73;32.11;54.25;;
72686;Laerm;61365;52.162;4.500;2023-07-31T13:56:42;41.72;32.86;53.37;;
72686;Laerm;61365;52.162;4.500;2023-07-31T13:59:09;41.71;32.52;55.73;;
72686;Laerm;61365;52.162;4.500;2023-07-31T14:01:35;41.85;32.57;53.84;;